createdAt,value
2019-05-06T00:01:11.689Z,100.00
2019-05-06T00:04:01.937Z,100.00
2019-05-06T00:06:54.594Z,100.00
2019-05-06T00:09:44.460Z,100.00
2019-05-06T00:12:34.933Z,100.00
2019-05-06T00:15:25.300Z,100.00
2019-05-06T00:18:15.851Z,100.00
2019-05-06T00:21:06.250Z,100.00
2019-05-06T00:23:56.906Z,100.00
2019-05-06T00:27:06.815Z,100.00
2019-05-06T00:29:57.512Z,100.00
2019-05-06T00:32:47.942Z,100.00
2019-05-06T00:35:38.409Z,100.00
2019-05-06T00:38:28.816Z,100.00
2019-05-06T00:41:26.602Z,100.00
2019-05-06T00:44:16.801Z,100.00
2019-05-06T00:47:07.327Z,100.00
2019-05-06T00:49:57.776Z,100.00
2019-05-06T00:52:48.928Z,100.00
2019-05-06T00:55:39.412Z,100.00
2019-05-06T00:58:30.105Z,100.00
2019-05-06T01:01:26.989Z,100.00
2019-05-06T01:04:13.918Z,100.00
2019-05-06T01:07:04.412Z,100.00
2019-05-06T01:09:55.373Z,100.00
2019-05-06T01:12:58.222Z,100.00
2019-05-06T01:15:48.400Z,100.00
2019-05-06T01:18:38.774Z,100.00
2019-05-06T01:21:29.314Z,100.00
2019-05-06T01:24:19.902Z,100.00
2019-05-06T01:27:10.234Z,100.00
2019-05-06T01:30:00.781Z,100.00
2019-05-06T01:32:51.386Z,100.00
2019-05-06T01:35:41.642Z,100.00
2019-05-06T01:38:36.657Z,100.00
2019-05-06T01:41:44.784Z,100.00
2019-05-06T01:44:35.213Z,100.00
2019-05-06T01:47:25.783Z,100.00
2019-05-06T01:50:16.264Z,100.00
2019-05-06T01:53:06.620Z,100.00
2019-05-06T01:55:57.193Z,100.00
2019-05-06T01:58:47.748Z,100.00
2019-05-06T02:01:38.327Z,100.00
2019-05-06T02:04:28.530Z,100.00
2019-05-06T02:07:19.752Z,100.00
2019-05-06T02:10:09.942Z,100.00
2019-05-06T02:13:00.478Z,100.00
2019-05-06T02:15:51.137Z,100.00
2019-05-06T02:18:41.881Z,100.00
2019-05-06T02:21:55.610Z,100.00
2019-05-06T02:24:58.589Z,100.00
2019-05-06T02:27:48.868Z,100.00
2019-05-06T02:31:16.430Z,100.00
2019-05-06T02:34:16.234Z,100.00
2019-05-06T02:37:14.654Z,100.00
2019-05-06T02:40:05.461Z,100.00
2019-05-06T02:42:55.909Z,100.00
2019-05-06T02:45:46.487Z,100.00
2019-05-06T02:48:45.210Z,100.00
2019-05-06T02:51:35.646Z,100.00
2019-05-06T02:54:26.129Z,100.00
2019-05-06T02:57:16.538Z,100.00
2019-05-06T03:00:08.728Z,100.00
2019-05-06T03:02:59.052Z,100.00
2019-05-06T03:05:49.535Z,100.00
2019-05-06T03:08:43.439Z,100.00
2019-05-06T03:11:33.960Z,100.00
2019-05-06T03:14:24.612Z,100.00
2019-05-06T03:17:15.073Z,100.00
2019-05-06T03:20:07.282Z,100.00
2019-05-06T03:23:03.709Z,100.00
2019-05-06T03:25:54.496Z,100.00
2019-05-06T03:28:45.990Z,100.00
2019-05-06T03:31:36.918Z,100.00
2019-05-06T03:34:49.775Z,100.00
2019-05-06T03:37:19.423Z,100.00
2019-05-06T03:40:13.817Z,100.00
2019-05-06T03:43:05.856Z,100.00
2019-05-06T03:46:23.171Z,100.00
2019-05-06T03:49:13.506Z,100.00
2019-05-06T03:52:04.101Z,100.00
2019-05-06T03:54:54.441Z,98.92
2019-05-06T03:57:47.995Z,96.77
2019-05-06T04:00:38.573Z,89.52
2019-05-06T04:03:43.952Z,81.37
2019-05-06T04:06:23.890Z,73.39
2019-05-06T04:09:13.436Z,58.88
2019-05-06T04:12:03.778Z,58.88
2019-05-06T04:14:54.989Z,54.91
2019-05-06T04:17:54.141Z,49.84
2019-05-06T04:20:56.700Z,46.93
2019-05-06T04:24:22.874Z,43.28
2019-05-06T04:27:33.895Z,39.80
2019-05-06T04:30:24.938Z,35.87
2019-05-06T04:33:17.449Z,39.52
2019-05-06T04:36:08.669Z,41.81
2019-05-06T04:38:59.480Z,42.36
2019-05-06T04:41:53.610Z,39.92
2019-05-06T04:44:43.924Z,36.89
2019-05-06T04:47:34.713Z,33.70
2019-05-06T04:50:26.044Z,30.31
2019-05-06T04:53:17.147Z,28.76
2019-05-06T04:56:08.277Z,26.46
2019-05-06T04:58:59.323Z,25.50
2019-05-06T05:01:53.169Z,22.91
2019-05-06T05:04:43.405Z,22.07
2019-05-06T05:07:34.210Z,21.14
2019-05-06T05:10:28.881Z,20.21
2019-05-06T05:13:37.855Z,19.75
2019-05-06T05:16:43.309Z,18.66
2019-05-06T05:19:34.448Z,18.66
2019-05-06T05:22:25.934Z,17.38
2019-05-06T05:25:16.820Z,18.41
2019-05-06T05:28:07.860Z,17.81
2019-05-06T05:30:59.057Z,16.12
2019-05-06T05:33:52.639Z,15.21
2019-05-06T05:36:43.179Z,15.14
2019-05-06T05:39:34.171Z,14.02
2019-05-06T05:42:48.355Z,18.35
2019-05-06T05:45:39.043Z,19.99
2019-05-06T05:48:43.156Z,25.24
2019-05-06T05:51:34.005Z,25.24
2019-05-06T05:54:24.918Z,30.13
2019-05-06T05:57:17.085Z,34.92
2019-05-06T06:00:07.841Z,39.24
2019-05-06T06:02:59.177Z,39.83
2019-05-06T06:05:52.034Z,40.17
2019-05-06T06:08:43.414Z,40.66
2019-05-06T06:11:42.914Z,43.04
2019-05-06T06:14:55.321Z,42.57
2019-05-06T06:17:52.731Z,42.92
2019-05-06T06:20:52.818Z,44.16
2019-05-06T06:23:44.742Z,46.60
2019-05-06T06:26:35.097Z,45.23
2019-05-06T06:29:25.629Z,47.23
2019-05-06T06:32:23.012Z,46.08
2019-05-06T06:35:19.598Z,45.03
2019-05-06T06:38:15.608Z,47.47
2019-05-06T06:41:05.786Z,46.82
2019-05-06T06:44:02.233Z,48.79
2019-05-06T06:46:52.622Z,48.64
2019-05-06T06:49:43.069Z,47.15
2019-05-06T06:52:33.612Z,48.06
2019-05-06T06:55:23.983Z,47.52
2019-05-06T06:58:34.278Z,45.44
2019-05-06T07:01:33.244Z,43.05
2019-05-06T07:04:32.432Z,43.79
2019-05-06T07:07:39.518Z,45.13
2019-05-06T07:10:34.652Z,42.33
2019-05-06T07:13:25.096Z,38.13
2019-05-06T07:16:15.950Z,34.04
2019-05-06T07:19:07.094Z,27.64
2019-05-06T07:21:58.933Z,23.75
2019-05-06T07:24:49.696Z,24.71
2019-05-06T07:27:42.100Z,28.43
2019-05-06T07:30:34.377Z,34.51
2019-05-06T07:33:25.557Z,34.63
2019-05-06T07:36:16.690Z,32.96
2019-05-06T07:39:08.036Z,34.24
2019-05-06T07:42:02.467Z,34.86
2019-05-06T07:45:12.411Z,35.45
2019-05-06T07:48:06.436Z,35.73
2019-05-06T07:50:58.788Z,34.89
2019-05-06T07:53:52.330Z,35.15
2019-05-06T07:56:43.466Z,35.34
2019-05-06T07:59:34.510Z,34.89
2019-05-06T08:02:25.776Z,35.75
2019-05-06T08:05:16.991Z,36.04
2019-05-06T08:08:07.832Z,37.45
2019-05-06T08:10:58.849Z,36.26
2019-05-06T08:13:48.995Z,35.13
2019-05-06T08:16:45.895Z,34.29
2019-05-06T08:19:37.241Z,34.70
2019-05-06T08:22:56.500Z,33.78
2019-05-06T08:25:49.480Z,34.93
2019-05-06T08:28:41.533Z,33.69
2019-05-06T08:31:32.876Z,33.49
2019-05-06T08:34:23.818Z,32.65
2019-05-06T08:37:25.773Z,33.97
2019-05-06T08:40:16.824Z,30.73
2019-05-06T08:43:07.854Z,26.29
2019-05-06T08:45:58.935Z,23.62
2019-05-06T08:48:52.348Z,21.91
2019-05-06T08:52:04.479Z,20.81
2019-05-06T08:54:56.823Z,16.67
2019-05-06T08:57:47.748Z,16.29
2019-05-06T09:00:44.704Z,16.69
2019-05-06T09:03:35.453Z,17.19
2019-05-06T09:06:30.635Z,17.19
2019-05-06T09:09:18.987Z,17.28
2019-05-06T09:12:10.016Z,18.99
2019-05-06T09:15:03.544Z,21.73
2019-05-06T09:17:55.659Z,25.64
2019-05-06T09:20:46.388Z,26.82
2019-05-06T09:23:38.066Z,28.50
2019-05-06T09:26:36.579Z,30.20
2019-05-06T09:29:35.745Z,30.38
2019-05-06T09:32:36.061Z,29.69
2019-05-06T09:35:24.684Z,31.93
2019-05-06T09:38:15.887Z,31.91
2019-05-06T09:41:07.292Z,31.96
2019-05-06T09:43:57.837Z,31.74
2019-05-06T09:46:48.904Z,31.34
2019-05-06T09:49:42.402Z,31.26
2019-05-06T09:52:33.268Z,31.50
2019-05-06T09:55:42.984Z,32.20
2019-05-06T09:58:49.130Z,31.75
2019-05-06T10:01:39.480Z,31.62
2019-05-06T10:04:32.515Z,32.33
2019-05-06T10:07:22.784Z,32.61
2019-05-06T10:10:13.078Z,33.66
2019-05-06T10:13:03.665Z,31.25
2019-05-06T10:15:57.549Z,33.25
2019-05-06T10:18:46.123Z,34.39
2019-05-06T10:21:36.577Z,33.31
2019-05-06T10:24:26.911Z,33.48
2019-05-06T10:27:22.593Z,33.95
2019-05-06T10:30:12.698Z,31.98
2019-05-06T10:33:06.190Z,32.09
2019-05-06T10:35:59.407Z,32.78
2019-05-06T10:38:58.784Z,31.77
2019-05-06T10:41:50.865Z,32.72
2019-05-06T10:44:54.670Z,32.48
2019-05-06T10:47:45.075Z,30.94
2019-05-06T10:50:39.769Z,30.45
2019-05-06T10:53:30.146Z,30.78
2019-05-06T10:56:52.290Z,29.51
2019-05-06T10:59:32.651Z,30.49
2019-05-06T11:02:42.986Z,30.16
2019-05-06T11:05:34.213Z,29.83
2019-05-06T11:08:24.975Z,30.12
2019-05-06T11:11:30.638Z,29.26
2019-05-06T11:14:07.531Z,29.83
2019-05-06T11:16:57.988Z,30.46
2019-05-06T11:19:49.424Z,31.28
2019-05-06T11:22:40.008Z,30.76
2019-05-06T11:25:32.303Z,30.89
2019-05-06T11:28:42.403Z,31.60
2019-05-06T11:31:39.113Z,31.78
2019-05-06T11:34:39.370Z,31.27
2019-05-06T11:37:54.814Z,30.41
2019-05-06T11:40:44.738Z,31.52
2019-05-06T11:43:35.734Z,30.90
2019-05-06T11:46:26.617Z,31.27
2019-05-06T11:49:17.729Z,30.03
2019-05-06T11:52:08.676Z,32.55
2019-05-06T11:55:02.050Z,34.05
2019-05-06T11:57:52.911Z,34.13
2019-05-06T12:00:44.612Z,29.44
2019-05-06T12:03:35.043Z,28.78
2019-05-06T12:06:25.882Z,28.79
2019-05-06T12:09:17.341Z,27.47
2019-05-06T12:12:07.934Z,28.27
2019-05-06T12:14:58.478Z,29.31
2019-05-06T12:17:50.506Z,28.13
2019-05-06T12:20:42.577Z,27.98
2019-05-06T12:23:35.465Z,27.17
2019-05-06T12:26:25.563Z,27.73
2019-05-06T12:29:16.011Z,27.79
2019-05-06T12:32:26.807Z,28.54
2019-05-06T12:35:17.027Z,29.32
2019-05-06T12:38:23.065Z,28.82
2019-05-06T12:41:03.452Z,28.04
2019-05-06T12:43:57.470Z,28.64
2019-05-06T12:47:00.047Z,34.02
2019-05-06T12:49:49.736Z,34.73
2019-05-06T12:52:43.818Z,33.92
2019-05-06T12:55:33.677Z,35.44
2019-05-06T12:58:24.349Z,36.03
2019-05-06T13:01:14.630Z,36.44
2019-05-06T13:04:05.096Z,35.52
2019-05-06T13:06:55.434Z,35.90
2019-05-06T13:09:45.658Z,35.39
2019-05-06T13:12:38.159Z,34.10
2019-05-06T13:15:28.514Z,34.35
2019-05-06T13:18:19.023Z,34.46
2019-05-06T13:21:09.955Z,32.99
2019-05-06T13:24:06.131Z,33.27
2019-05-06T13:26:58.895Z,33.84
2019-05-06T13:29:48.574Z,32.85
2019-05-06T13:32:42.585Z,34.13
2019-05-06T13:35:32.892Z,34.35
2019-05-06T13:38:23.258Z,34.02
2019-05-06T13:41:13.774Z,30.38
2019-05-06T13:44:13.158Z,30.67
2019-05-06T13:47:04.432Z,32.47
2019-05-06T13:49:58.257Z,32.05
2019-05-06T13:53:06.565Z,30.62
2019-05-06T13:55:42.862Z,31.12
2019-05-06T13:58:32.975Z,32.37
2019-05-06T14:01:25.151Z,32.42
2019-05-06T14:04:15.890Z,31.43
2019-05-06T14:07:07.396Z,31.03
2019-05-06T14:10:02.754Z,33.40
2019-05-06T14:12:53.482Z,32.14
2019-05-06T14:15:43.944Z,32.52
2019-05-06T14:18:37.513Z,33.59
2019-05-06T14:21:26.216Z,36.08
2019-05-06T14:24:22.025Z,36.35
2019-05-06T14:27:13.215Z,37.75
2019-05-06T14:30:09.635Z,37.49
2019-05-06T14:32:59.815Z,39.56
2019-05-06T14:35:52.474Z,40.60
2019-05-06T14:38:42.989Z,42.74
2019-05-06T14:41:33.416Z,44.02
2019-05-06T14:44:23.828Z,40.27
2019-05-06T14:47:23.258Z,41.25
2019-05-06T14:50:15.053Z,40.03
2019-05-06T14:53:05.478Z,40.13
2019-05-06T14:55:57.293Z,40.21
2019-05-06T14:59:04.504Z,40.48
2019-05-06T15:01:54.957Z,40.74
2019-05-06T15:04:45.392Z,42.08
2019-05-06T15:07:35.767Z,43.24
2019-05-06T15:10:26.636Z,44.31
2019-05-06T15:13:18.199Z,45.00
2019-05-06T15:16:08.447Z,44.25
2019-05-06T15:18:58.705Z,45.12
2019-05-06T15:21:49.198Z,44.80
2019-05-06T15:24:39.664Z,46.21
2019-05-06T15:27:30.197Z,45.86
2019-05-06T15:30:28.718Z,45.51
2019-05-06T15:33:22.474Z,45.03
2019-05-06T15:36:36.814Z,46.52
2019-05-06T15:39:27.422Z,51.34
2019-05-06T15:42:18.011Z,58.82
2019-05-06T15:45:09.010Z,53.18
2019-05-06T15:47:59.217Z,54.11
2019-05-06T15:50:53.042Z,50.70
2019-05-06T15:53:45.024Z,50.56
2019-05-06T15:56:35.625Z,52.65
2019-05-06T15:59:26.035Z,54.38
2019-05-06T16:02:16.527Z,53.26
2019-05-06T16:05:17.583Z,53.23
2019-05-06T16:07:58.488Z,51.95
2019-05-06T16:10:52.592Z,48.96
2019-05-06T16:13:42.561Z,49.60
2019-05-06T16:16:33.417Z,50.24
2019-05-06T16:19:23.832Z,49.90
2019-05-06T16:22:15.028Z,49.85
2019-05-06T16:25:09.918Z,49.34
2019-05-06T16:28:02.130Z,50.29
2019-05-06T16:30:53.387Z,51.69
2019-05-06T16:33:43.915Z,57.20
2019-05-06T16:36:36.691Z,61.40
2019-05-06T16:39:27.060Z,61.11
2019-05-06T16:42:17.443Z,59.42
2019-05-06T16:45:07.797Z,63.16
2019-05-06T16:47:57.988Z,61.61
2019-05-06T16:50:48.210Z,61.61
2019-05-06T16:53:39.371Z,64.15
2019-05-06T16:56:52.818Z,55.67
2019-05-06T16:59:43.153Z,56.96
2019-05-06T17:02:43.174Z,51.07
2019-05-06T17:05:52.013Z,51.44
2019-05-06T17:08:42.596Z,49.55
2019-05-06T17:11:34.606Z,49.41
2019-05-06T17:14:24.944Z,50.43
2019-05-06T17:17:15.146Z,49.90
2019-05-06T17:20:05.582Z,49.88
2019-05-06T17:22:56.356Z,50.46
2019-05-06T17:25:46.636Z,51.05
2019-05-06T17:28:43.822Z,49.53
2019-05-06T17:31:43.421Z,46.58
2019-05-06T17:34:36.984Z,46.82
2019-05-06T17:37:45.090Z,46.82
2019-05-06T17:40:35.766Z,47.35
2019-05-06T17:43:25.836Z,47.70
2019-05-06T17:46:18.800Z,47.53
2019-05-06T17:49:12.969Z,48.72
2019-05-06T17:52:06.075Z,47.91
2019-05-06T17:54:58.329Z,47.83
2019-05-06T17:57:48.721Z,47.50
2019-05-06T18:00:39.050Z,47.60
2019-05-06T18:03:29.343Z,47.64
2019-05-06T18:06:19.808Z,47.58
2019-05-06T18:09:12.639Z,47.06
2019-05-06T18:12:03.874Z,47.77
2019-05-06T18:14:54.270Z,48.77
2019-05-06T18:17:44.811Z,48.51
2019-05-06T18:20:39.071Z,48.40
2019-05-06T18:23:29.319Z,46.97
2019-05-06T18:26:19.834Z,46.14
2019-05-06T18:29:12.360Z,45.86
2019-05-06T18:32:03.778Z,45.42
2019-05-06T18:34:53.808Z,44.76
2019-05-06T18:37:44.242Z,45.12
2019-05-06T18:40:35.520Z,45.07
2019-05-06T18:43:25.889Z,45.82
2019-05-06T18:46:16.315Z,47.25
2019-05-06T18:49:06.755Z,48.76
2019-05-06T18:51:57.225Z,52.92
2019-05-06T18:54:47.624Z,55.90
2019-05-06T18:57:38.107Z,56.70
2019-05-06T19:00:29.341Z,56.65
2019-05-06T19:03:19.829Z,53.44
2019-05-06T19:06:11.943Z,49.82
2019-05-06T19:09:22.800Z,49.80
2019-05-06T19:12:28.399Z,51.98
2019-05-06T19:15:05.381Z,55.24
2019-05-06T19:17:55.954Z,57.08
2019-05-06T19:20:46.640Z,59.00
2019-05-06T19:23:36.918Z,62.00
2019-05-06T19:26:27.179Z,62.91
2019-05-06T19:29:17.619Z,62.50
2019-05-06T19:32:07.932Z,53.14
2019-05-06T19:34:58.382Z,50.54
2019-05-06T19:37:48.794Z,51.94
2019-05-06T19:40:39.166Z,53.96
2019-05-06T19:43:29.333Z,52.98
2019-05-06T19:46:21.374Z,54.16
2019-05-06T19:49:11.395Z,55.16
2019-05-06T19:52:03.225Z,54.77
2019-05-06T19:54:54.887Z,54.86
2019-05-06T19:57:45.728Z,56.81
2019-05-06T20:00:37.353Z,57.49
2019-05-06T20:03:27.964Z,58.14
2019-05-06T20:06:37.162Z,56.54
2019-05-06T20:09:46.338Z,56.32
2019-05-06T20:13:00.981Z,59.00
2019-05-06T20:15:42.844Z,60.02
2019-05-06T20:18:33.115Z,62.03
2019-05-06T20:21:24.519Z,63.96
2019-05-06T20:24:14.849Z,64.69
2019-05-06T20:27:05.105Z,65.13
2019-05-06T20:29:55.210Z,66.70
2019-05-06T20:32:45.645Z,68.30
2019-05-06T20:35:36.004Z,68.61
2019-05-06T20:38:26.147Z,70.66
2019-05-06T20:41:16.545Z,72.40
2019-05-06T20:44:07.875Z,74.28
2019-05-06T20:46:58.412Z,74.68
2019-05-06T20:49:48.957Z,63.82
2019-05-06T20:52:42.441Z,62.03
2019-05-06T20:55:35.542Z,59.77
2019-05-06T20:58:25.227Z,58.78
2019-05-06T21:01:15.754Z,56.11
2019-05-06T21:04:08.504Z,58.16
2019-05-06T21:06:58.678Z,56.82
2019-05-06T21:09:49.123Z,55.53
2019-05-06T21:12:39.584Z,55.47
2019-05-06T21:15:32.297Z,55.28
2019-05-06T21:18:22.889Z,54.98
2019-05-06T21:21:13.657Z,55.12
2019-05-06T21:24:04.047Z,55.50
2019-05-06T21:26:54.425Z,55.23
2019-05-06T21:29:44.551Z,55.68
2019-05-06T21:32:35.023Z,55.72
2019-05-06T21:35:25.905Z,54.53
2019-05-06T21:38:16.431Z,53.42
2019-05-06T21:41:07.211Z,54.17
2019-05-06T21:43:57.736Z,54.55
2019-05-06T21:46:48.175Z,54.20
2019-05-06T21:49:38.501Z,54.23
2019-05-06T21:52:39.290Z,52.73
2019-05-06T21:55:22.707Z,52.11
2019-05-06T21:58:12.747Z,53.14
2019-05-06T22:01:06.707Z,53.93
2019-05-06T22:03:58.919Z,53.95
2019-05-06T22:06:49.304Z,52.54
2019-05-06T22:09:39.790Z,52.56
2019-05-06T22:12:31.846Z,53.01
2019-05-06T22:15:22.767Z,53.28
2019-05-06T22:18:13.151Z,53.01
2019-05-06T22:21:14.867Z,53.90
2019-05-06T22:24:07.015Z,54.05
2019-05-06T22:26:57.814Z,55.28
2019-05-06T22:29:48.405Z,56.02
2019-05-06T22:32:47.659Z,56.37
2019-05-06T22:35:38.142Z,57.82
2019-05-06T22:38:28.381Z,58.95
2019-05-06T22:41:18.731Z,59.73
2019-05-06T22:44:13.589Z,57.72
2019-05-06T22:47:02.755Z,57.12
2019-05-06T22:49:54.348Z,58.12
2019-05-06T22:52:44.998Z,59.19
2019-05-06T22:55:35.493Z,59.92
2019-05-06T22:58:25.640Z,60.78
2019-05-06T23:01:44.956Z,61.37
2019-05-06T23:04:35.897Z,62.46
2019-05-06T23:07:27.431Z,63.99
2019-05-06T23:10:17.789Z,65.32
2019-05-06T23:13:08.231Z,66.07
2019-05-06T23:15:58.530Z,66.70
2019-05-06T23:18:49.048Z,65.98
2019-05-06T23:21:39.656Z,66.26
2019-05-06T23:24:32.149Z,64.95
2019-05-06T23:27:23.248Z,64.34
2019-05-06T23:30:13.791Z,64.84
2019-05-06T23:33:04.261Z,63.79
2019-05-06T23:35:54.648Z,62.20
2019-05-06T23:39:22.936Z,60.87
2019-05-06T23:42:52.477Z,60.65
2019-05-06T23:46:18.099Z,60.94
2019-05-06T23:49:44.293Z,61.03
2019-05-06T23:53:12.235Z,60.46
2019-05-06T23:56:38.331Z,60.88
2019-05-06T23:59:28.761Z,60.67
